sensor_id;sensor_type;location;lat;lon;timestamp;pressure;altitude;pressure_sealevel;temperature;humidity
75460;BME280;64039;53.060;9.342;2024-03-02T00:00:05;100000.06;;;6.12;100.00
75460;BME280;64039;53.060;9.342;2024-03-02T00:02:45;99999.97;;;6.09;100.00
75460;BME280;64039;53.060;9.342;2024-03-02T00:05:12;99998.97;;;6.04;100.00
75460;BME280;64039;53.060;9.342;2024-03-02T00:07:41;99996.41;;;6.04;100.00
75460;BME280;64039;53.060;9.342;2024-03-02T00:10:10;99990.50;;;6.08;100.00
75460;BME280;64039;53.060;9.342;2024-03-02T00:12:39;99992.22;;;6.09;100.00
75460;BME280;64039;53.060;9.342;2024-03-02T00:15:40;100002.50;;;6.06;100.00
75460;BME280;64039;53.060;9.342;2024-03-02T00:18:11;99999.00;;;6.05;100.00
75460;BME280;64039;53.060;9.342;2024-03-02T00:20:37;100001.72;;;6.10;100.00
75460;BME280;64039;53.060;9.342;2024-03-02T00:23:04;99999.25;;;6.14;100.00
75460;BME280;64039;53.060;9.342;2024-03-02T00:25:39;99998.53;;;6.20;100.00
75460;BME280;64039;53.060;9.342;2024-03-02T00:28:27;99995.03;;;6.18;100.00
75460;BME280;64039;53.060;9.342;2024-03-02T00:31:04;99993.09;;;6.09;100.00
75460;BME280;64039;53.060;9.342;2024-03-02T00:33:38;100001.44;;;5.99;100.00
75460;BME280;64039;53.060;9.342;2024-03-02T00:36:06;99991.84;;;5.95;100.00
75460;BME280;64039;53.060;9.342;2024-03-02T00:38:33;99990.53;;;6.09;100.00
75460;BME280;64039;53.060;9.342;2024-03-02T00:41:00;99987.16;;;6.13;100.00
75460;BME280;64039;53.060;9.342;2024-03-02T00:43:42;99992.97;;;6.03;100.00
75460;BME280;64039;53.060;9.342;2024-03-02T00:46:13;100000.50;;;5.97;100.00
75460;BME280;64039;53.060;9.342;2024-03-02T00:48:41;99990.31;;;6.02;100.00
75460;BME280;64039;53.060;9.342;2024-03-02T00:51:10;99990.53;;;6.09;100.00
75460;BME280;64039;53.060;9.342;2024-03-02T00:53:37;100002.66;;;6.13;100.00
75460;BME280;64039;53.060;9.342;2024-03-02T00:56:02;100000.56;;;5.98;100.00
75460;BME280;64039;53.060;9.342;2024-03-02T00:58:28;99994.34;;;5.92;100.00
75460;BME280;64039;53.060;9.342;2024-03-02T01:00:53;100002.06;;;5.90;100.00
75460;BME280;64039;53.060;9.342;2024-03-02T01:03:19;100004.53;;;5.87;100.00
75460;BME280;64039;53.060;9.342;2024-03-02T01:05:45;99999.16;;;5.79;100.00
75460;BME280;64039;53.060;9.342;2024-03-02T01:08:11;99994.84;;;5.78;100.00
75460;BME280;64039;53.060;9.342;2024-03-02T01:10:36;99994.78;;;5.77;100.00
75460;BME280;64039;53.060;9.342;2024-03-02T01:13:02;100001.66;;;5.76;100.00
75460;BME280;64039;53.060;9.342;2024-03-02T01:15:27;99994.00;;;5.79;100.00
75460;BME280;64039;53.060;9.342;2024-03-02T01:17:53;100000.31;;;5.89;100.00
75460;BME280;64039;53.060;9.342;2024-03-02T01:20:18;99997.59;;;5.85;100.00
75460;BME280;64039;53.060;9.342;2024-03-02T01:22:44;99994.13;;;5.84;100.00
75460;BME280;64039;53.060;9.342;2024-03-02T01:25:09;99993.28;;;5.85;100.00
75460;BME280;64039;53.060;9.342;2024-03-02T01:27:35;99998.56;;;5.90;100.00
75460;BME280;64039;53.060;9.342;2024-03-02T01:30:00;99993.78;;;6.02;100.00
75460;BME280;64039;53.060;9.342;2024-03-02T01:32:26;99985.06;;;5.98;100.00
75460;BME280;64039;53.060;9.342;2024-03-02T01:34:52;99985.84;;;5.96;100.00
75460;BME280;64039;53.060;9.342;2024-03-02T01:37:17;99992.47;;;5.86;100.00
75460;BME280;64039;53.060;9.342;2024-03-02T01:39:43;99987.94;;;5.77;100.00
75460;BME280;64039;53.060;9.342;2024-03-02T01:42:08;99980.19;;;5.77;100.00
75460;BME280;64039;53.060;9.342;2024-03-02T01:44:36;99979.34;;;5.78;100.00
75460;BME280;64039;53.060;9.342;2024-03-02T01:47:01;99980.31;;;5.82;100.00
75460;BME280;64039;53.060;9.342;2024-03-02T01:49:27;99982.09;;;5.85;100.00
75460;BME280;64039;53.060;9.342;2024-03-02T01:51:52;99973.66;;;5.92;100.00
75460;BME280;64039;53.060;9.342;2024-03-02T01:54:18;99973.59;;;5.89;100.00
75460;BME280;64039;53.060;9.342;2024-03-02T01:56:43;99977.84;;;5.87;100.00
75460;BME280;64039;53.060;9.342;2024-03-02T01:59:09;99978.09;;;5.96;100.00
75460;BME280;64039;53.060;9.342;2024-03-02T02:01:34;99976.16;;;5.89;100.00
75460;BME280;64039;53.060;9.342;2024-03-02T02:04:00;99961.72;;;5.95;100.00
75460;BME280;64039;53.060;9.342;2024-03-02T02:06:25;99953.88;;;5.92;100.00
75460;BME280;64039;53.060;9.342;2024-03-02T02:08:51;99959.84;;;5.90;100.00
75460;BME280;64039;53.060;9.342;2024-03-02T02:11:17;99960.75;;;5.92;100.00
75460;BME280;64039;53.060;9.342;2024-03-02T02:13:43;99951.28;;;5.92;100.00
75460;BME280;64039;53.060;9.342;2024-03-02T02:16:08;99955.38;;;5.84;100.00
75460;BME280;64039;53.060;9.342;2024-03-02T02:18:34;99946.88;;;5.88;100.00
75460;BME280;64039;53.060;9.342;2024-03-02T02:21:01;99945.81;;;5.80;100.00
75460;BME280;64039;53.060;9.342;2024-03-02T02:23:27;99948.25;;;5.74;100.00
75460;BME280;64039;53.060;9.342;2024-03-02T02:25:52;99945.53;;;5.69;100.00
75460;BME280;64039;53.060;9.342;2024-03-02T02:28:18;99941.25;;;5.71;100.00
75460;BME280;64039;53.060;9.342;2024-03-02T02:30:43;99941.31;;;5.73;100.00
75460;BME280;64039;53.060;9.342;2024-03-02T02:33:09;99930.16;;;5.74;100.00
75460;BME280;64039;53.060;9.342;2024-03-02T02:35:34;99938.63;;;5.68;100.00
75460;BME280;64039;53.060;9.342;2024-03-02T02:38:00;99935.34;;;5.74;100.00
75460;BME280;64039;53.060;9.342;2024-03-02T02:40:26;99935.94;;;5.65;100.00
75460;BME280;64039;53.060;9.342;2024-03-02T02:42:51;99936.78;;;5.64;100.00
75460;BME280;64039;53.060;9.342;2024-03-02T02:45:17;99926.00;;;5.80;100.00
75460;BME280;64039;53.060;9.342;2024-03-02T02:47:43;99927.47;;;5.69;100.00
75460;BME280;64039;53.060;9.342;2024-03-02T02:50:11;99924.66;;;5.61;100.00
75460;BME280;64039;53.060;9.342;2024-03-02T02:52:38;99929.56;;;5.52;100.00
75460;BME280;64039;53.060;9.342;2024-03-02T02:55:06;99922.50;;;5.45;100.00
75460;BME280;64039;53.060;9.342;2024-03-02T02:57:33;99923.16;;;5.38;100.00
75460;BME280;64039;53.060;9.342;2024-03-02T03:00:21;99925.50;;;5.30;100.00
75460;BME280;64039;53.060;9.342;2024-03-02T03:02:48;99924.00;;;5.37;100.00
75460;BME280;64039;53.060;9.342;2024-03-02T03:05:16;99918.84;;;5.37;100.00
75460;BME280;64039;53.060;9.342;2024-03-02T03:07:42;99915.19;;;5.30;100.00
75460;BME280;64039;53.060;9.342;2024-03-02T03:10:09;99917.78;;;5.30;100.00
75460;BME280;64039;53.060;9.342;2024-03-02T03:12:35;99917.00;;;5.32;100.00
75460;BME280;64039;53.060;9.342;2024-03-02T03:15:01;99912.56;;;5.27;100.00
75460;BME280;64039;53.060;9.342;2024-03-02T03:17:27;99914.06;;;5.20;100.00
75460;BME280;64039;53.060;9.342;2024-03-02T03:19:53;99923.59;;;5.23;100.00
75460;BME280;64039;53.060;9.342;2024-03-02T03:22:18;99912.97;;;5.12;100.00
75460;BME280;64039;53.060;9.342;2024-03-02T03:24:44;99912.88;;;5.09;100.00
75460;BME280;64039;53.060;9.342;2024-03-02T03:27:10;99926.75;;;5.12;100.00
75460;BME280;64039;53.060;9.342;2024-03-02T03:29:37;99915.41;;;5.06;100.00
75460;BME280;64039;53.060;9.342;2024-03-02T03:32:02;99907.66;;;5.06;100.00
75460;BME280;64039;53.060;9.342;2024-03-02T03:34:32;99918.09;;;5.10;100.00
75460;BME280;64039;53.060;9.342;2024-03-02T03:36:58;99920.81;;;5.15;100.00
75460;BME280;64039;53.060;9.342;2024-03-02T03:39:23;99919.72;;;5.07;100.00
75460;BME280;64039;53.060;9.342;2024-03-02T03:41:48;99909.88;;;4.93;100.00
75460;BME280;64039;53.060;9.342;2024-03-02T03:44:14;99922.97;;;4.99;100.00
75460;BME280;64039;53.060;9.342;2024-03-02T03:46:39;99913.66;;;5.06;100.00
75460;BME280;64039;53.060;9.342;2024-03-02T03:49:05;99917.91;;;5.04;100.00
75460;BME280;64039;53.060;9.342;2024-03-02T03:51:30;99917.00;;;5.02;100.00
75460;BME280;64039;53.060;9.342;2024-03-02T03:53:56;99917.84;;;5.01;100.00
75460;BME280;64039;53.060;9.342;2024-03-02T03:56:21;99915.72;;;4.87;100.00
75460;BME280;64039;53.060;9.342;2024-03-02T03:58:47;99913.19;;;4.89;100.00
75460;BME280;64039;53.060;9.342;2024-03-02T04:01:12;99910.94;;;5.00;100.00
75460;BME280;64039;53.060;9.342;2024-03-02T04:03:38;99918.81;;;5.04;100.00
75460;BME280;64039;53.060;9.342;2024-03-02T04:06:03;99910.00;;;4.98;100.00
75460;BME280;64039;53.060;9.342;2024-03-02T04:08:29;99905.72;;;4.98;100.00
75460;BME280;64039;53.060;9.342;2024-03-02T04:10:54;99911.75;;;4.99;100.00
75460;BME280;64039;53.060;9.342;2024-03-02T04:13:20;99904.81;;;4.96;100.00
75460;BME280;64039;53.060;9.342;2024-03-02T04:15:45;99903.72;;;4.88;100.00
75460;BME280;64039;53.060;9.342;2024-03-02T04:18:11;99899.38;;;4.87;100.00
75460;BME280;64039;53.060;9.342;2024-03-02T04:20:36;99908.72;;;4.83;100.00
75460;BME280;64039;53.060;9.342;2024-03-02T04:23:02;99911.34;;;4.85;100.00
75460;BME280;64039;53.060;9.342;2024-03-02T04:25:28;99910.25;;;4.77;100.00
75460;BME280;64039;53.060;9.342;2024-03-02T04:27:53;99912.66;;;4.72;100.00
75460;BME280;64039;53.060;9.342;2024-03-02T04:30:19;99920.34;;;4.69;100.00
75460;BME280;64039;53.060;9.342;2024-03-02T04:32:44;99919.59;;;4.73;100.00
75460;BME280;64039;53.060;9.342;2024-03-02T04:35:12;99927.94;;;4.64;100.00
75460;BME280;64039;53.060;9.342;2024-03-02T04:37:38;99919.25;;;4.62;100.00
75460;BME280;64039;53.060;9.342;2024-03-02T04:40:04;99921.00;;;4.63;100.00
75460;BME280;64039;53.060;9.342;2024-03-02T04:42:33;99923.19;;;4.51;100.00
75460;BME280;64039;53.060;9.342;2024-03-02T04:44:59;99923.41;;;4.57;100.00
75460;BME280;64039;53.060;9.342;2024-03-02T04:47:24;99915.75;;;4.60;100.00
75460;BME280;64039;53.060;9.342;2024-03-02T04:49:50;99917.22;;;4.52;100.00
75460;BME280;64039;53.060;9.342;2024-03-02T04:52:16;99917.41;;;4.58;100.00
75460;BME280;64039;53.060;9.342;2024-03-02T04:54:42;99913.19;;;4.60;100.00
75460;BME280;64039;53.060;9.342;2024-03-02T04:57:26;99902.84;;;4.59;100.00
75460;BME280;64039;53.060;9.342;2024-03-02T04:59:52;99908.28;;;4.68;100.00
75460;BME280;64039;53.060;9.342;2024-03-02T05:02:17;99910.47;;;4.55;100.00
75460;BME280;64039;53.060;9.342;2024-03-02T05:04:42;99903.34;;;4.47;100.00
75460;BME280;64039;53.060;9.342;2024-03-02T05:07:08;99911.19;;;4.51;100.00
75460;BME280;64039;53.060;9.342;2024-03-02T05:09:33;99903.19;;;4.42;100.00
75460;BME280;64039;53.060;9.342;2024-03-02T05:11:59;99910.28;;;4.49;100.00
75460;BME280;64039;53.060;9.342;2024-03-02T05:14:40;99913.19;;;4.60;100.00
75460;BME280;64039;53.060;9.342;2024-03-02T05:17:06;99909.59;;;4.55;100.00
75460;BME280;64039;53.060;9.342;2024-03-02T05:19:31;99900.78;;;4.48;100.00
75460;BME280;64039;53.060;9.342;2024-03-02T05:21:57;99899.00;;;4.46;100.00
75460;BME280;64039;53.060;9.342;2024-03-02T05:24:22;99892.88;;;4.42;100.00
75460;BME280;64039;53.060;9.342;2024-03-02T05:26:48;99900.69;;;4.45;100.00
75460;BME280;64039;53.060;9.342;2024-03-02T05:29:14;99888.41;;;4.36;100.00
75460;BME280;64039;53.060;9.342;2024-03-02T05:31:39;99898.66;;;4.35;100.00
75460;BME280;64039;53.060;9.342;2024-03-02T05:34:05;99906.06;;;4.51;100.00
75460;BME280;64039;53.060;9.342;2024-03-02T05:36:31;99923.22;;;4.80;100.00
75460;BME280;64039;53.060;9.342;2024-03-02T05:38:57;99930.66;;;4.69;100.00
75460;BME280;64039;53.060;9.342;2024-03-02T05:41:22;99924.75;;;4.73;100.00
75460;BME280;64039;53.060;9.342;2024-03-02T05:43:47;99922.03;;;4.68;100.00
75460;BME280;64039;53.060;9.342;2024-03-02T05:46:13;99924.75;;;4.46;100.00
75460;BME280;64039;53.060;9.342;2024-03-02T05:48:38;99921.28;;;4.45;100.00
75460;BME280;64039;53.060;9.342;2024-03-02T05:51:04;99928.50;;;4.28;100.00
75460;BME280;64039;53.060;9.342;2024-03-02T05:53:29;99925.59;;;4.17;100.00
75460;BME280;64039;53.060;9.342;2024-03-02T05:55:55;99929.63;;;4.36;100.00
75460;BME280;64039;53.060;9.342;2024-03-02T05:58:22;99932.88;;;4.31;100.00
75460;BME280;64039;53.060;9.342;2024-03-02T06:01:08;99931.78;;;4.24;100.00
75460;BME280;64039;53.060;9.342;2024-03-02T06:03:33;99933.41;;;4.20;100.00
75460;BME280;64039;53.060;9.342;2024-03-02T06:06:00;99939.41;;;4.19;100.00
75460;BME280;64039;53.060;9.342;2024-03-02T06:08:26;99936.91;;;4.22;100.00
75460;BME280;64039;53.060;9.342;2024-03-02T06:10:51;99940.41;;;4.24;100.00
75460;BME280;64039;53.060;9.342;2024-03-02T06:13:17;99933.47;;;4.22;100.00
75460;BME280;64039;53.060;9.342;2024-03-02T06:15:42;99932.66;;;4.23;100.00
75460;BME280;64039;53.060;9.342;2024-03-02T06:18:07;99942.00;;;4.21;100.00
75460;BME280;64039;53.060;9.342;2024-03-02T06:20:33;99943.91;;;4.27;100.00
75460;BME280;64039;53.060;9.342;2024-03-02T06:22:59;99940.41;;;4.24;100.00
75460;BME280;64039;53.060;9.342;2024-03-02T06:25:24;99943.09;;;4.28;100.00
75460;BME280;64039;53.060;9.342;2024-03-02T06:27:49;99946.56;;;4.30;100.00
75460;BME280;64039;53.060;9.342;2024-03-02T06:30:15;99950.25;;;4.36;100.00
75460;BME280;64039;53.060;9.342;2024-03-02T06:32:40;99949.47;;;4.39;100.00
75460;BME280;64039;53.060;9.342;2024-03-02T06:35:06;99961.56;;;4.41;100.00
75460;BME280;64039;53.060;9.342;2024-03-02T06:37:36;99961.19;;;4.56;100.00
75460;BME280;64039;53.060;9.342;2024-03-02T06:40:01;99965.63;;;4.61;100.00
75460;BME280;64039;53.060;9.342;2024-03-02T06:42:28;99962.44;;;4.69;100.00
75460;BME280;64039;53.060;9.342;2024-03-02T06:44:58;99957.25;;;4.68;100.00
75460;BME280;64039;53.060;9.342;2024-03-02T06:47:24;99968.56;;;4.73;100.00
75460;BME280;64039;53.060;9.342;2024-03-02T06:49:49;99962.97;;;4.86;100.00
75460;BME280;64039;53.060;9.342;2024-03-02T06:52:15;99975.25;;;4.95;100.00
75460;BME280;64039;53.060;9.342;2024-03-02T06:54:40;99971.72;;;4.92;100.00
75460;BME280;64039;53.060;9.342;2024-03-02T06:57:06;99973.47;;;4.93;100.00
75460;BME280;64039;53.060;9.342;2024-03-02T06:59:31;99975.41;;;5.00;100.00
75460;BME280;64039;53.060;9.342;2024-03-02T07:01:58;99978.41;;;5.14;100.00
75460;BME280;64039;53.060;9.342;2024-03-02T07:04:24;99976.59;;;5.11;100.00
75460;BME280;64039;53.060;9.342;2024-03-02T07:06:49;99976.69;;;5.14;100.00
75460;BME280;64039;53.060;9.342;2024-03-02T07:09:16;99985.59;;;5.24;100.00
75460;BME280;64039;53.060;9.342;2024-03-02T07:11:42;99983.22;;;5.32;100.00
75460;BME280;64039;53.060;9.342;2024-03-02T07:14:07;99983.34;;;5.37;100.00
75460;BME280;64039;53.060;9.342;2024-03-02T07:16:33;99975.78;;;5.43;100.00
75460;BME280;64039;53.060;9.342;2024-03-02T07:18:59;99979.66;;;5.59;100.00
75460;BME280;64039;53.060;9.342;2024-03-02T07:21:27;99983.50;;;5.73;100.00
75460;BME280;64039;53.060;9.342;2024-03-02T07:23:52;99988.75;;;5.76;100.00
75460;BME280;64039;53.060;9.342;2024-03-02T07:26:18;99983.59;;;5.76;100.00
75460;BME280;64039;53.060;9.342;2024-03-02T07:28:45;99984.75;;;5.88;100.00
75460;BME280;64039;53.060;9.342;2024-03-02T07:31:11;99978.34;;;6.05;100.00
75460;BME280;64039;53.060;9.342;2024-03-02T07:33:36;99978.34;;;6.05;100.00
75460;BME280;64039;53.060;9.342;2024-03-02T07:36:02;99986.44;;;6.18;100.00
75460;BME280;64039;53.060;9.342;2024-03-02T07:38:28;99985.88;;;6.29;100.00
75460;BME280;64039;53.060;9.342;2024-03-02T07:40:54;99980.25;;;6.46;100.00
75460;BME280;64039;53.060;9.342;2024-03-02T07:43:20;99989.03;;;6.53;100.00
75460;BME280;64039;53.060;9.342;2024-03-02T07:45:47;99989.38;;;6.68;100.00
75460;BME280;64039;53.060;9.342;2024-03-02T07:48:14;99988.81;;;6.82;100.00
75460;BME280;64039;53.060;9.342;2024-03-02T07:50:39;99994.22;;;6.92;100.00
75460;BME280;64039;53.060;9.342;2024-03-02T07:53:05;99997.03;;;7.02;100.00
75460;BME280;64039;53.060;9.342;2024-03-02T07:55:31;99998.28;;;7.19;100.00
75460;BME280;64039;53.060;9.342;2024-03-02T07:57:57;100003.66;;;7.29;100.00
75460;BME280;64039;53.060;9.342;2024-03-02T08:00:23;99997.03;;;7.43;100.00
75460;BME280;64039;53.060;9.342;2024-03-02T08:02:50;100005.91;;;7.54;100.00
75460;BME280;64039;53.060;9.342;2024-03-02T08:05:19;100008.88;;;7.73;100.00
75460;BME280;64039;53.060;9.342;2024-03-02T08:07:45;100008.16;;;7.80;100.00
75460;BME280;64039;53.060;9.342;2024-03-02T08:10:12;100014.53;;;7.98;100.00
75460;BME280;64039;53.060;9.342;2024-03-02T08:12:38;100010.31;;;8.03;100.00
75460;BME280;64039;53.060;9.342;2024-03-02T08:15:03;100002.97;;;8.28;100.00
75460;BME280;64039;53.060;9.342;2024-03-02T08:17:29;100015.97;;;8.29;100.00
75460;BME280;64039;53.060;9.342;2024-03-02T08:19:55;100017.09;;;8.44;100.00
75460;BME280;64039;53.060;9.342;2024-03-02T08:22:21;100012.84;;;8.47;100.00
75460;BME280;64039;53.060;9.342;2024-03-02T08:24:47;100006.94;;;8.56;100.00
75460;BME280;64039;53.060;9.342;2024-03-02T08:27:12;100013.94;;;8.62;100.00
75460;BME280;64039;53.060;9.342;2024-03-02T08:29:38;100006.38;;;8.74;100.00
75460;BME280;64039;53.060;9.342;2024-03-02T08:32:05;100003.91;;;8.84;100.00
75460;BME280;64039;53.060;9.342;2024-03-02T08:34:31;100006.66;;;8.93;100.00
75460;BME280;64039;53.060;9.342;2024-03-02T08:36:56;100011.16;;;9.05;100.00
75460;BME280;64039;53.060;9.342;2024-03-02T08:39:22;100017.53;;;9.27;100.00
75460;BME280;64039;53.060;9.342;2024-03-02T08:41:47;100011.44;;;9.28;100.00
75460;BME280;64039;53.060;9.342;2024-03-02T08:44:14;100013.38;;;9.40;100.00
75460;BME280;64039;53.060;9.342;2024-03-02T08:46:40;100016.16;;;9.55;100.00
75460;BME280;64039;53.060;9.342;2024-03-02T08:49:06;100011.81;;;9.56;100.00
75460;BME280;64039;53.060;9.342;2024-03-02T08:51:32;100021.25;;;9.48;100.00
75460;BME280;64039;53.060;9.342;2024-03-02T08:53:57;100020.41;;;9.50;100.00
75460;BME280;64039;53.060;9.342;2024-03-02T08:56:23;100022.28;;;9.62;100.00
75460;BME280;64039;53.060;9.342;2024-03-02T08:58:50;100025.69;;;9.56;100.00
75460;BME280;64039;53.060;9.342;2024-03-02T09:01:16;100024.81;;;9.56;100.00
75460;BME280;64039;53.060;9.342;2024-03-02T09:03:42;100037.13;;;9.71;100.00
75460;BME280;64039;53.060;9.342;2024-03-02T09:06:10;100025.09;;;9.78;100.00
75460;BME280;64039;53.060;9.342;2024-03-02T09:08:35;100031.09;;;9.75;100.00
75460;BME280;64039;53.060;9.342;2024-03-02T09:11:02;100034.81;;;9.96;100.00
75460;BME280;64039;53.060;9.342;2024-03-02T09:13:28;100034.00;;;10.03;100.00
75460;BME280;64039;53.060;9.342;2024-03-02T09:15:54;100033.91;;;9.94;100.00
75460;BME280;64039;53.060;9.342;2024-03-02T09:18:20;100037.50;;;10.06;100.00
75460;BME280;64039;53.060;9.342;2024-03-02T09:20:45;100038.25;;;9.93;100.00
75460;BME280;64039;53.060;9.342;2024-03-02T09:23:11;100043.59;;;10.07;100.00
75460;BME280;64039;53.060;9.342;2024-03-02T09:25:37;100036.75;;;10.15;100.00
75460;BME280;64039;53.060;9.342;2024-03-02T09:28:02;100041.16;;;10.22;100.00
75460;BME280;64039;53.060;9.342;2024-03-02T09:30:28;100039.44;;;10.25;100.00
75460;BME280;64039;53.060;9.342;2024-03-02T09:32:53;100052.22;;;10.03;100.00
75460;BME280;64039;53.060;9.342;2024-03-02T09:35:19;100052.38;;;10.18;100.00
75460;BME280;64039;53.060;9.342;2024-03-02T09:37:45;100047.22;;;10.21;100.00
75460;BME280;64039;53.060;9.342;2024-03-02T09:40:11;100051.63;;;10.29;100.00
75460;BME280;64039;53.060;9.342;2024-03-02T09:42:37;100042.97;;;10.28;100.00
75460;BME280;64039;53.060;9.342;2024-03-02T09:45:03;100050.03;;;10.40;100.00
75460;BME280;64039;53.060;9.342;2024-03-02T09:47:30;100051.78;;;10.44;100.00
75460;BME280;64039;53.060;9.342;2024-03-02T09:49:55;100050.00;;;10.38;100.00
75460;BME280;64039;53.060;9.342;2024-03-02T09:52:22;100054.53;;;10.58;100.00
75460;BME280;64039;53.060;9.342;2024-03-02T09:54:48;100045.69;;;10.41;98.82
75460;BME280;64039;53.060;9.342;2024-03-02T09:57:14;100046.59;;;10.46;99.73
75460;BME280;64039;53.060;9.342;2024-03-02T09:59:40;100043.31;;;10.67;99.38
75460;BME280;64039;53.060;9.342;2024-03-02T10:02:05;100039.00;;;10.70;98.30
75460;BME280;64039;53.060;9.342;2024-03-02T10:04:32;100045.22;;;10.87;98.00
75460;BME280;64039;53.060;9.342;2024-03-02T10:07:12;100037.47;;;10.96;97.07
75460;BME280;64039;53.060;9.342;2024-03-02T10:09:38;100042.75;;;11.05;95.69
75460;BME280;64039;53.060;9.342;2024-03-02T10:12:10;100039.25;;;11.03;96.36
75460;BME280;64039;53.060;9.342;2024-03-02T10:14:37;100044.50;;;11.06;95.28
75460;BME280;64039;53.060;9.342;2024-03-02T10:17:04;100051.34;;;10.95;94.73
75460;BME280;64039;53.060;9.342;2024-03-02T10:19:29;100047.88;;;10.96;94.50
75460;BME280;64039;53.060;9.342;2024-03-02T10:22:00;100048.00;;;11.10;94.67
75460;BME280;64039;53.060;9.342;2024-03-02T10:24:26;100047.09;;;11.08;92.02
75460;BME280;64039;53.060;9.342;2024-03-02T10:26:52;100043.78;;;11.32;92.28
75460;BME280;64039;53.060;9.342;2024-03-02T10:29:18;100046.50;;;11.54;91.42
75460;BME280;64039;53.060;9.342;2024-03-02T10:31:44;100039.59;;;11.67;92.00
75460;BME280;64039;53.060;9.342;2024-03-02T10:34:11;100043.09;;;11.70;91.57
75460;BME280;64039;53.060;9.342;2024-03-02T10:36:40;100037.94;;;11.90;91.91
75460;BME280;64039;53.060;9.342;2024-03-02T10:39:07;100050.03;;;11.71;88.86
75460;BME280;64039;53.060;9.342;2024-03-02T10:41:37;100046.56;;;11.74;86.50
75460;BME280;64039;53.060;9.342;2024-03-02T10:44:13;100041.50;;;12.03;85.81
75460;BME280;64039;53.060;9.342;2024-03-02T10:46:39;100046.69;;;12.05;85.61
75460;BME280;64039;53.060;9.342;2024-03-02T10:49:06;100039.78;;;12.04;85.35
75460;BME280;64039;53.060;9.342;2024-03-02T10:51:33;100049.31;;;12.09;86.34
75460;BME280;64039;53.060;9.342;2024-03-02T10:53:59;100045.91;;;12.23;86.60
75460;BME280;64039;53.060;9.342;2024-03-02T10:56:34;100046.72;;;12.09;83.32
75460;BME280;64039;53.060;9.342;2024-03-02T10:59:10;100050.19;;;12.01;82.72
75460;BME280;64039;53.060;9.342;2024-03-02T11:01:39;100044.91;;;11.90;82.32
75460;BME280;64039;53.060;9.342;2024-03-02T11:04:08;100045.75;;;11.83;84.13
75460;BME280;64039;53.060;9.342;2024-03-02T11:06:36;100045.00;;;12.11;83.40
75460;BME280;64039;53.060;9.342;2024-03-02T11:09:07;100039.78;;;12.16;83.16
75460;BME280;64039;53.060;9.342;2024-03-02T11:11:43;100045.91;;;12.23;83.38
75460;BME280;64039;53.060;9.342;2024-03-02T11:14:13;100045.91;;;12.32;83.07
75460;BME280;64039;53.060;9.342;2024-03-02T11:16:42;100042.41;;;12.36;82.94
75460;BME280;64039;53.060;9.342;2024-03-02T11:19:13;100040.72;;;12.52;81.38
75460;BME280;64039;53.060;9.342;2024-03-02T11:21:39;100043.31;;;12.41;81.99
75460;BME280;64039;53.060;9.342;2024-03-02T11:26:51;100042.47;;;12.58;80.83
75460;BME280;64039;53.060;9.342;2024-03-02T11:32:01;100052.03;;;12.85;77.69
75460;BME280;64039;53.060;9.342;2024-03-02T11:34:36;100051.13;;;12.80;76.73
75460;BME280;64039;53.060;9.342;2024-03-02T11:37:05;100052.91;;;12.84;77.37
75460;BME280;64039;53.060;9.342;2024-03-02T11:39:31;100049.41;;;12.71;76.25
75460;BME280;64039;53.060;9.342;2024-03-02T11:41:57;100043.31;;;12.83;76.79
75460;BME280;64039;53.060;9.342;2024-03-02T11:44:27;100040.72;;;12.86;76.98
75460;BME280;64039;53.060;9.342;2024-03-02T11:47:03;100042.41;;;13.15;77.06
75460;BME280;64039;53.060;9.342;2024-03-02T11:52:07;100045.03;;;13.21;74.74
75460;BME280;64039;53.060;9.342;2024-03-02T11:54:33;100038.06;;;13.17;72.91
75460;BME280;64039;53.060;9.342;2024-03-02T11:57:04;100037.19;;;13.06;72.23
75460;BME280;64039;53.060;9.342;2024-03-02T11:59:29;100036.25;;;13.32;70.36
75460;BME280;64039;53.060;9.342;2024-03-02T12:01:58;100038.03;;;13.27;69.62
75460;BME280;64039;53.060;9.342;2024-03-02T12:04:26;100035.38;;;13.47;71.41
75460;BME280;64039;53.060;9.342;2024-03-02T12:06:55;100040.63;;;13.34;69.84
75460;BME280;64039;53.060;9.342;2024-03-02T12:09:21;100038.94;;;13.01;71.57
75460;BME280;64039;53.060;9.342;2024-03-02T12:11:47;100036.34;;;13.09;73.14
75460;BME280;64039;53.060;9.342;2024-03-02T12:14:12;100042.44;;;13.00;75.74
75460;BME280;64039;53.060;9.342;2024-03-02T12:16:38;100045.00;;;13.20;75.35
75460;BME280;64039;53.060;9.342;2024-03-02T12:19:05;100036.28;;;13.23;72.92
75460;BME280;64039;53.060;9.342;2024-03-02T12:21:31;100041.53;;;13.40;70.86
75460;BME280;64039;53.060;9.342;2024-03-02T12:23:57;100033.66;;;13.41;73.87
75460;BME280;64039;53.060;9.342;2024-03-02T12:26:22;100032.72;;;13.58;72.89
75460;BME280;64039;53.060;9.342;2024-03-02T12:28:49;100037.06;;;13.60;71.37
75460;BME280;64039;53.060;9.342;2024-03-02T12:31:14;100033.59;;;13.60;71.60
75460;BME280;64039;53.060;9.342;2024-03-02T12:33:40;100028.25;;;13.84;71.26
75460;BME280;64039;53.060;9.342;2024-03-02T12:36:09;100015.22;;;13.83;69.48
75460;BME280;64039;53.060;9.342;2024-03-02T12:38:37;100019.53;;;13.87;72.95
75460;BME280;64039;53.060;9.342;2024-03-02T12:41:03;100008.28;;;13.68;70.02
75460;BME280;64039;53.060;9.342;2024-03-02T12:43:31;100013.44;;;13.85;69.28
75460;BME280;64039;53.060;9.342;2024-03-02T12:45:59;100012.59;;;13.78;69.61
75460;BME280;64039;53.060;9.342;2024-03-02T12:48:25;100016.84;;;14.01;69.90
75460;BME280;64039;53.060;9.342;2024-03-02T12:50:50;100016.16;;;13.66;69.23
75460;BME280;64039;53.060;9.342;2024-03-02T12:53:16;100004.94;;;13.40;69.74
75460;BME280;64039;53.060;9.342;2024-03-02T12:55:42;100009.25;;;13.50;70.41
75460;BME280;64039;53.060;9.342;2024-03-02T12:58:19;100010.09;;;13.58;68.53
75460;BME280;64039;53.060;9.342;2024-03-02T13:00:44;100011.78;;;13.70;69.73